x

Luke Offshore Test Platform - 64 Nm South Of Dauphin Island, Al (42040) Wave Buoy

6:50am - Sun 29th Mar 2015 All times are CDT. -5 hours from GMT.

  • Sig Wave height 1.0ft
  • Peak Period 3s
  • Average Period 3s
  • Wind
    13mph, 18mph gusts
  • Sea Temp 71°f
  • Air Temp 64°f
  • Sea Pressure 1025.7mb
  • Luke Offshore Test Platform - 64 Nm South Of Dauphin Island, Al
  • Luke Offshore Test Platform - 64 Nm South Of Dauphin Island, Al

More Historic Weather Station data

Upgrade to MSW Pro to gain access to the past 30 days of data for over 8000 Wavebouys and Weather Stations around the globe.

Join Pro

Comparision Forecast

View Surf forecast
   
Sun 03/29 6:50am 1ft 3s 3s 13 18 mph 1025.7mb 71f 64f
5:50am 1ft 7s 4s 13 18 mph 1025.1mb 71f 64f
4:50am 1ft 4s 4s 11 13 mph 1024.4mb 71f 63f
3:50am 1ft 4s 4s 9 11 mph 1024.2mb 71f 63f
2:50am 1ft 5s 4s 9 11 mph 1024.5mb 71f 63f
1:50am 1ft 4s 4s 7 11 mph 1024.9mb 71f 63f
12:50am 1ft 4s 4s 7 9 mph 1025.1mb 71f 62f
Sat 03/28 11:50pm 1ft 5s 4s 9 11 mph 1025.1mb 71f 62f
10:50pm 1ft 5s 4s 4 7 mph 1025.3mb 71f 61f
9:50pm 1.3ft 4s 4s 4 7 mph 1025.1mb 71f 61f
8:50pm 1.3ft 4s 4s 4 7 mph 1024.6mb 71f 60f
7:50pm 1.3ft 5s 4s 4 7 mph 1023.9mb 72f 60f
6:50pm 1.3ft 4s 4s 4 9 mph 1023.4mb 72f 60f
5:50pm 1.6ft 4s 4s 7 11 mph 1023mb 73f 59f
4:50pm 1.6ft 5s 4s 4 9 mph 1022.9mb 73f 59f
3:50pm 1.6ft 5s 4s 7 9 mph 1022.9mb 73f 58f
2:50pm 1.6ft 5s 4s 7 9 mph 1023.5mb 73f 58f
1:50pm 2ft 5s 4s 7 11 mph 1024.1mb 72f 57f
12:50pm 2ft 5s 4s 9 13 mph 1024.7mb 72f 57f
11:50am 2.5ft 4s 4s 9 16 mph 1024.8mb 72f 57f
10:50am 2.5ft 4s 4s 9 13 mph 1025.2mb 71f 57f
9:50am 2.5ft 5s 4s 9 13 mph 1025.1mb 71f 57f
8:50am 3ft 5s 4s 11 18 mph 1024mb 71f 57f
7:50am 3ft 5s 4s 13 20 mph 1023.2mb 71f 58f
6:50am 3.5ft 5s 4s 16 20 mph 1022.6mb 71f 58f
5:50am 3.5ft 5s 4s 13 20 mph 1022.1mb 71f 58f
4:50am 3.5ft 5s 5s 13 18 mph 1021.2mb 71f 59f
3:50am 4ft 6s 5s 16 20 mph 1020.8mb 71f 59f
2:50am 4.5ft 6s 5s 18 20 mph 1020.9mb 71f 60f
1:50am 4.5ft 5s 5s 18 22 mph 1020.9mb 71f 61f
12:50am 4ft 7s 5s 20 22 mph 1020.5mb 71f 62f
Fri 03/27 11:50pm 4.5ft 5s 5s 18 25 mph 1020.1mb 71f 64f
10:50pm 4ft 5s 5s 20 25 mph 1019.6mb 71f 65f
9:50pm 4ft 8s 5s 20 25 mph 1018.5mb 71f 67f
8:50pm 4ft 5s 5s 20 25 mph 1018mb 71f 66f
7:50pm 4ft 5s 5s 18 22 mph 1017mb 71f 65f
6:50pm 4ft 6s 4s 22 27 mph 1016.4mb 71f 65f
5:50pm 3.5ft 5s 4s 22 27 mph 1016mb 71f 64f
4:50pm 4ft 6s 5s 20 29 mph 1015.8mb 72f 62f
3:50pm 4.5ft 5s 5s 22 27 mph 1015.9mb 72f 62f
2:50pm 4.5ft 6s 5s 22 27 mph 1015.8mb 71f 61f
1:50pm 4.5ft 6s 4s 22 27 mph 1016.3mb 71f 60f
12:50pm 5ft 6s 4s 20 25 mph 1016.6mb 71f 58f
11:50am 6ft 6s 4s 25 29 mph 1017.1mb 71f 58f
10:50am 6ft 6s 4s 25 31 mph 1016.6mb 72f 58f
9:50am 6ft 6s 4s 27 31 mph 1015.2mb 72f 58f
8:50am 6ft 5s 4s 29 34 mph 1013.8mb 73f 59f
7:50am 5ft 5s 4s 27 34 mph 1013mb 73f 61f
6:50am 4ft 4s 4s 27 31 mph 1011.9mb 73f 63f
5:50am 3.5ft 4s 4s 22 27 mph 1011mb 73f 64f
4:50am 3ft 4s 4s 22 25 mph 1010.8mb 73f 65f
3:50am 4ft 4s 4s 20 22 mph 1010.9mb 73f 68f
2:50am 3.5ft 7s 4s 22 25 mph 1010.9mb 73f 68f
1:50am 3.5ft 4s 4s 22 27 mph 1011.1mb 73f 69f
12:50am 4ft 7s 4s 22 27 mph 1011.5mb 73f 69f
Thu 03/26 11:50pm 3.5ft 7s 4s 22 25 mph 1011.9mb 73f 71f
10:50pm 3.5ft 4s 4s 16 18 mph 1011.7mb 73f 72f
9:50pm 3.5ft 5s 4s 16 18 mph 1011.2mb 73f 71f
8:50pm 3.5ft 6s 4s 25 29 mph 1009.4mb 73f 70f
7:50pm 2.5ft 6s 5s 29 34 mph 1009mb 73f 68f
6:50pm 2.5ft 6s 5s 18 22 mph 1012.2mb 73f 68f
5:50pm 2ft 6s 5s 11 13 mph 1011.3mb 73f 68f
4:50pm 2.5ft 6s 5s 9 11 mph 1012.5mb 72f 68f
3:50pm 2ft 6s 4s 4 7 mph 1011.9mb 72f 68f
2:50pm 2ft 6s 5s 13 18 mph 1012.8mb 72f 69f
1:50pm 2ft 6s 5s 7 9 mph 1012.2mb 72f 70f
12:50pm 2.5ft 6s 5s 9 11 mph 1013mb 72f 69f
11:50am 3ft 6s 5s 11 13 mph 1014.2mb 71f 69f
10:50am 3ft 6s 5s 9 11 mph 1013.7mb 71f 67f
9:50am 3ft 5s 5s 16 20 mph 1016.2mb 72f 65f
8:50am 3ft 5s 5s 16 20 mph 1013.2mb 72f 73f
7:50am 3.5ft 5s 5s 7
mph
1013.3mb 72f 73f
6:50am 3ft 5s 4s 4 7 mph 1012.8mb 72f 73f
5:50am 3.5ft 5s 4s 9 11 mph 1012.9mb 72f 73f
4:50am 2ft 4s 4s 9 11 mph 1012.7mb 73f 73f
3:50am 1.6ft 3s 3s 11 13 mph 1013.2mb 74f 73f
2:50am 1.6ft 3s 3s 11 13 mph 1013.6mb 74f 73f
1:50am 1.6ft 5s 3s 11 13 mph 1014.6mb 74f 73f
12:50am 1.6ft 5s 3s 13 16 mph 1015.4mb 74f 73f
Wed 03/25 11:50pm 1.6ft 5s 3s 11 13 mph 1016.5mb 74f 73f
10:50pm 1.3ft 5s 3s 13 16 mph 1016.7mb 74f 73f
9:50pm 1.6ft 5s 4s 11 13 mph 1017.1mb 74f 73f
8:50pm 1.3ft 5s 4s 9 11 mph 1017mb 75f 73f
7:50pm 1.6ft 5s 4s 9 11 mph 1016.7mb 75f 73f
6:50pm 1.6ft 5s 4s 11
mph
1016.6mb 76f 73f
5:50pm 1.3ft 5s 4s 9 11 mph 1016.8mb 76f 73f
4:50pm 1.6ft 5s 4s 9 11 mph 1016.8mb 77f 73f
3:50pm 1.6ft 5s 4s 9 11 mph 1017.4mb 77f 73f
2:50pm 1.6ft 5s 4s 7 9 mph 1017.9mb 77f 73f
1:50pm 1.6ft 6s 5s 7 9 mph 1018.8mb 77f 73f